»·PEaware :: WAT169 KSNA-KLAS

WAT169 :: KSNA-KLAS

FLIGHT INFORMATION

Flight Status: Arrived
Operator: Unknown
More flights by this operator :: More flights under this callsign
Pilot: Marty P. (27464)
Aircraft: BOMBARDIER BD-100 CHALLENGER 300
(CL30)
More flights by this aircraft type
Origin: KSNA John Wayne-Orange Co
United States
Destination: KLAS McCarran Intl
United States
More flights between these airports :: More routes between these airports
Route: FINZZ2 MISEN KEPEC6
File this flight plan on PilotEdge
Remarks:
Altitude:
(Current/Filed)
29,000ft
Speed:
(Current/Filed)
470kts
Departed: 17-Mar-20 09:35 PM
Arrived: 17-Mar-20 10:22 PM
Distance/Time
Traveled:
196nm/0:46
Distance/Time
To Go:
Arrived

Flight Plot

Page will automatically refresh every two minutes.

Flight plan parsing failed; only flown route is shown


Map Options




Map Legend


Flown Route
Filed Route
Departure Airport
Arrival Airport
Navaid (VOR, NDB)
Fix

Horizontal Profiles

Position Reports

Time Latitude Longitude Heading Altitude Ground
Speed
17-Mar-20 21:16 33.668129 -117.870979 221 62ft 0kts
17-Mar-20 21:17 33.668129 -117.870979 221 62ft 0kts
17-Mar-20 21:18 33.668129 -117.870979 221 62ft 0kts
17-Mar-20 21:19 33.668129 -117.870979 221 62ft 0kts
17-Mar-20 21:20 33.668129 -117.870979 221 62ft 0kts
17-Mar-20 21:21 33.668129 -117.870979 221 62ft 0kts
17-Mar-20 21:22 33.668129 -117.870979 221 62ft 0kts
17-Mar-20 21:23 33.668129 -117.870979 221 62ft 0kts
17-Mar-20 21:24 33.668129 -117.870979 221 62ft 0kts
17-Mar-20 21:25 33.668129 -117.870979 221 62ft 0kts
17-Mar-20 21:26 33.668129 -117.870979 221 62ft 0kts
17-Mar-20 21:27 33.668129 -117.870979 221 62ft 0kts
17-Mar-20 21:29 33.668683 -117.871371 36 63ft 6kts
17-Mar-20 21:30 33.671339 -117.868668 35 62ft 19kts
17-Mar-20 21:31 33.676669 -117.864849 27 62ft 21kts
17-Mar-20 21:32 33.680834 -117.863448 297 63ft 15kts
17-Mar-20 21:33 33.681151 -117.864197 298 63ft 0kts
17-Mar-20 21:34 33.681151 -117.864197 298 63ft 0kts
17-Mar-20 21:35 33.679933 -117.866150 207 63ft 56kts
17-Mar-20 21:36 33.639311 -117.886431 189 1740ft 213kts
17-Mar-20 21:37 33.581617 -117.897412 189 4184ft 208kts
17-Mar-20 21:38 33.531640 -117.944813 222 6189ft 248kts
17-Mar-20 21:39 33.495667 -118.012752 288 9442ft 270kts
17-Mar-20 21:40 33.548512 -118.088748 311 12117ft 325kts
17-Mar-20 21:41 33.632897 -118.103049 23 13664ft 355kts
17-Mar-20 21:42 33.725305 -118.050480 25 15750ft 383kts
17-Mar-20 21:43 33.824863 -117.992408 24 18696ft 416kts
17-Mar-20 21:43 33.912564 -117.937775 36 20834ft 441kts
17-Mar-20 21:45 34.030477 -117.831241 38 23488ft 472kts
17-Mar-20 21:46 34.125801 -117.723254 54 25442ft 489kts
17-Mar-20 21:46 34.198304 -117.615885 54 27199ft 497kts
17-Mar-20 21:48 34.301554 -117.462046 54 28971ft 522kts
17-Mar-20 21:49 34.395942 -117.320829 54 28960ft 570kts
17-Mar-20 21:49 34.480101 -117.194490 54 28966ft 576kts
17-Mar-20 21:51 34.598518 -117.019086 53 28953ft 577kts
17-Mar-20 21:52 34.701144 -116.869262 53 28952ft 577kts
17-Mar-20 21:52 34.786439 -116.744259 53 28953ft 577kts
17-Mar-20 21:53 34.897033 -116.603994 39 28956ft 577kts
17-Mar-20 21:54 35.022047 -116.482024 38 28957ft 575kts
17-Mar-20 21:55 35.140446 -116.355764 46 28936ft 573kts
17-Mar-20 21:56 35.249751 -116.219153 47 28926ft 569kts
17-Mar-20 21:57 35.359805 -116.080652 48 28467ft 574kts
17-Mar-20 21:58 35.465401 -115.947229 49 24918ft 521kts
17-Mar-20 21:59 35.562378 -115.824128 48 21045ft 484kts
17-Mar-20 22:00 35.651683 -115.710378 48 16954ft 443kts
17-Mar-20 22:01 35.733018 -115.606511 48 13077ft 394kts
17-Mar-20 22:02 35.829106 -115.572320 2 13013ft 367kts
17-Mar-20 22:03 35.931903 -115.565627 4 13005ft 372kts
17-Mar-20 22:04 35.995366 -115.484777 69 11276ft 316kts
17-Mar-20 22:05 36.024174 -115.397037 72 10980ft 232kts
17-Mar-20 22:06 36.027024 -115.324161 99 10450ft 223kts
17-Mar-20 22:07 36.021504 -115.243927 98 9001ft 232kts
17-Mar-20 22:08 36.016234 -115.168153 98 9001ft 210kts
17-Mar-20 22:09 36.011233 -115.094578 98 7995ft 202kts
17-Mar-20 22:10 36.006987 -115.025153 97 8009ft 211kts
17-Mar-20 22:11 36.002140 -114.944208 97 8005ft 249kts
17-Mar-20 22:12 36.010384 -114.863551 38 7282ft 262kts
17-Mar-20 22:13 36.078370 -114.842626 357 5484ft 224kts
17-Mar-20 22:14 36.127123 -114.861836 297 5056ft 185kts
17-Mar-20 22:15 36.151749 -114.915029 295 5202ft 175kts
17-Mar-20 22:16 36.175735 -114.974786 293 5215ft 207kts
17-Mar-20 22:17 36.198769 -115.044201 282 4885ft 214kts
17-Mar-20 22:18 36.182436 -115.103033 207 3280ft 190kts
17-Mar-20 22:19 36.143595 -115.127802 199 2760ft 135kts
17-Mar-20 22:20 36.110832 -115.146512 205 2573ft 129kts
17-Mar-20 22:21 36.084566 -115.161550 205 2188ft 39kts
17-Mar-20 22:22 36.081642 -115.165347 288 2188ft 15kts
17-Mar-20 22:23 36.084188 -115.167702 24 2188ft 16kts
17-Mar-20 22:24 36.083672 -115.168896 214 2188ft 10kts

Navigation Log

Ident Type
Flight plan parsing failed, navigation log unavailable